Time;durP1;ratioP1;P1;durP2;ratioP2;P2;SDS_P1;SDS_P2;PMS_P1;PMS_P2;Temp;Humidity;BMP_temperature;BMP_pressure;BME280_temperature;BME280_humidity;BME280_pressure;Samples;Min_cycle;Max_cycle;Signal;HPM_P1;HPM_P2
2022/08/10 00:01:33;;;;;;;3.57;3.27;;;24.50;42.80;;;;;;5119332;27;20967;-47
2022/08/10 00:04:00;;;;;;;7.20;3.13;;;24.50;42.70;;;;;;5117537;27;20871;-48
2022/08/10 00:06:27;;;;;;;4.67;2.97;;;24.50;43.10;;;;;;5120816;27;20461;-48
2022/08/10 00:08:54;;;;;;;3.70;3.23;;;24.40;43.20;;;;;;5099511;28;20465;-48
2022/08/10 00:11:21;;;;;;;5.60;3.70;;;24.40;43.00;;;;;;5117589;27;20458;-48
2022/08/10 00:13:48;;;;;;;2.90;2.70;;;24.30;43.10;;;;;;5099355;28;20825;-48
2022/08/10 00:16:15;;;;;;;3.27;3.07;;;24.30;43.70;;;;;;5120916;27;20465;-47
2022/08/10 00:18:43;;;;;;;4.13;2.80;;;24.20;43.00;;;;;;5118988;27;20485;-47
2022/08/10 00:21:10;;;;;;;4.10;2.90;;;24.20;44.00;;;;;;5108111;27;20484;-48
2022/08/10 00:23:37;;;;;;;3.00;2.60;;;24.10;43.80;;;;;;5106071;27;20461;-48
2022/08/10 00:26:05;;;;;;;2.90;2.70;;;24.10;43.80;;;;;;5105424;27;20497;-48
2022/08/10 00:28:32;;;;;;;2.90;2.60;;;24.10;44.00;;;;;;5104676;27;20469;-48
2022/08/10 00:30:59;;;;;;;3.33;3.00;;;24.10;44.00;;;;;;5122118;27;20458;-48
2022/08/10 00:33:26;;;;;;;3.07;2.87;;;24.10;43.60;;;;;;5119840;27;20454;-48
2022/08/10 00:35:52;;;;;;;4.60;3.07;;;24.00;43.70;;;;;;5119720;27;20462;-48
2022/08/10 00:38:19;;;;;;;4.63;3.20;;;24.10;43.70;;;;;;5120437;27;20482;-48
2022/08/10 00:40:46;;;;;;;5.33;3.27;;;24.00;44.00;;;;;;5124353;27;20825;-48
2022/08/10 00:43:13;;;;;;;3.43;3.10;;;24.00;43.60;;;;;;5124735;27;20454;-48
2022/08/10 00:45:40;;;;;;;3.23;2.93;;;24.00;43.20;;;;;;5118701;27;20463;-49
2022/08/10 00:48:08;;;;;;;5.47;3.40;;;24.00;43.50;;;;;;5120373;27;20458;-47
2022/08/10 00:50:35;;;;;;;3.70;2.97;;;24.00;43.50;;;;;;5120386;27;20469;-48
2022/08/10 00:53:01;;;;;;;3.47;2.63;;;23.90;43.60;;;;;;5118435;27;20458;-48
2022/08/10 00:55:29;;;;;;;5.40;2.83;;;23.90;43.50;;;;;;5119966;27;20458;-47
2022/08/10 00:57:55;;;;;;;3.40;3.10;;;23.90;43.70;;;;;;5120681;27;20509;-47
2022/08/10 01:00:23;;;;;;;3.00;2.80;;;24.00;43.50;;;;;;5123364;27;20451;-49
2022/08/10 01:02:50;;;;;;;3.97;3.40;;;24.00;43.30;;;;;;5123102;27;20459;-47
2022/08/10 01:05:19;;;;;;;3.20;2.80;;;23.90;43.60;;;;;;5105252;27;20450;-48
2022/08/10 01:08:13;;;;;;;5.13;3.00;;;23.90;44.10;;;;;;5124393;27;20494;-48
2022/08/10 01:10:50;;;;;;;3.53;3.23;;;23.90;44.20;;;;;;5100281;27;20455;-48
2022/08/10 01:13:24;;;;;;;3.37;3.13;;;23.80;43.90;;;;;;5107080;27;20450;-48
2022/08/10 01:16:02;;;;;;;3.40;3.10;;;23.80;44.80;;;;;;5122326;27;20442;-48
2022/08/10 01:19:09;;;;;;;5.67;3.07;;;23.70;44.40;;;;;;5107685;27;20517;-48
2022/08/10 01:21:46;;;;;;;5.67;3.20;;;23.70;44.10;;;;;;5121268;27;20537;-48
2022/08/10 01:24:52;;;;;;;3.50;3.20;;;23.70;44.90;;;;;;5123867;27;20992;-48
2022/08/10 01:27:39;;;;;;;4.10;2.57;;;23.60;45.00;;;;;;5123398;27;20459;-48
2022/08/10 01:30:12;;;;;;;3.43;3.23;;;23.50;44.10;;;;;;5120809;27;20446;-48
2022/08/10 01:32:58;;;;;;;3.50;3.30;;;23.50;44.70;;;;;;5110586;27;20647;-48
2022/08/10 01:35:46;;;;;;;3.27;3.00;;;23.50;44.70;;;;;;5128445;27;20439;-48
2022/08/10 01:38:33;;;;;;;3.90;3.57;;;23.60;44.20;;;;;;5122055;27;20988;-47
2022/08/10 01:41:03;;;;;;;3.47;3.17;;;23.50;45.00;;;;;;5124601;27;20434;-47
2022/08/10 01:43:32;;;;;;;5.80;3.50;;;23.50;44.70;;;;;;5109318;27;20451;-48
2022/08/10 01:46:02;;;;;;;3.27;2.97;;;23.40;44.90;;;;;;5122554;27;20546;-48
2022/08/10 01:48:37;;;;;;;2.97;2.77;;;23.40;45.10;;;;;;5123705;27;20814;-48
2022/08/10 01:51:26;;;;;;;6.50;3.10;;;23.40;44.90;;;;;;5125131;27;20455;-48
2022/08/10 01:54:05;;;;;;;5.27;3.80;;;23.40;44.60;;;;;;5103490;27;20463;-48
2022/08/10 01:56:42;;;;;;;5.37;3.03;;;23.40;45.70;;;;;;5119656;27;20483;-48
2022/08/10 01:59:13;;;;;;;3.57;3.10;;;23.30;45.10;;;;;;5103086;27;20475;-48
2022/08/10 02:01:49;;;;;;;3.80;2.90;;;23.30;45.40;;;;;;5106658;27;20462;-48
2022/08/10 02:04:18;;;;;;;3.57;2.87;;;23.20;45.80;;;;;;5118916;27;20850;-48
2022/08/10 02:06:49;;;;;;;4.80;2.90;;;23.10;45.90;;;;;;5103518;27;20477;-48
2022/08/10 02:09:28;;;;;;;7.23;3.10;;;23.10;45.90;;;;;;5118701;27;20463;-48
2022/08/10 02:11:59;;;;;;;3.30;3.10;;;23.10;45.90;;;;;;5117763;27;20462;-48
2022/08/10 02:14:39;;;;;;;3.03;2.73;;;23.00;46.30;;;;;;5119857;27;20548;-48
2022/08/10 02:17:10;;;;;;;3.70;3.40;;;23.00;46.30;;;;;;5104495;27;20827;-48
2022/08/10 02:20:02;;;;;;;3.23;2.93;;;22.90;46.40;;;;;;5118396;27;20542;-48
2022/08/10 02:22:30;;;;;;;3.37;3.00;;;22.90;46.50;;;;;;5122542;27;20719;-49
2022/08/10 02:25:07;;;;;;;4.23;3.13;;;22.90;46.50;;;;;;5124045;27;20469;-48
2022/08/10 02:27:35;;;;;;;4.20;3.27;;;22.90;46.40;;;;;;5119538;27;20466;-48
2022/08/10 02:30:04;;;;;;;4.17;3.17;;;22.80;46.70;;;;;;5121721;27;20450;-48
2022/08/10 02:32:32;;;;;;;3.13;2.93;;;22.80;46.10;;;;;;5115264;27;20462;-48
2022/08/10 02:35:10;;;;;;;3.97;3.00;;;22.80;46.40;;;;;;5119192;27;20913;-48
2022/08/10 02:37:51;;;;;;;4.00;3.20;;;22.80;46.80;;;;;;5116615;27;20520;-48
2022/08/10 02:40:19;;;;;;;3.13;2.80;;;22.80;46.50;;;;;;5115174;27;20529;-46
2022/08/10 02:43:31;;;;;;;3.47;3.03;;;22.80;46.70;;;;;;5121751;27;20462;-45
2022/08/10 02:46:41;;;;;;;6.20;2.80;;;22.70;46.90;;;;;;5121906;27;20841;-46
2022/08/10 02:49:17;;;;;;;3.63;3.20;;;22.70;47.20;;;;;;5103004;27;20462;-45
2022/08/10 02:51:49;;;;;;;3.77;3.40;;;22.60;47.20;;;;;;5098575;27;20984;-45
2022/08/10 02:54:47;;;;;;;3.27;3.07;;;22.50;47.20;;;;;;5123687;27;20562;-48
2022/08/10 02:57:26;;;;;;;3.80;3.40;;;22.50;47.40;;;;;;5100305;27;20899;-47
2022/08/10 02:59:58;;;;;;;3.33;2.97;;;22.40;47.20;;;;;;5120373;27;20483;-48
2022/08/10 03:02:33;;;;;;;3.30;3.10;;;22.30;47.80;;;;;;5117630;27;20458;-48
2022/08/10 03:05:05;;;;;;;3.60;3.30;;;22.30;47.80;;;;;;5118699;27;20711;-48
2022/08/10 03:07:39;;;;;;;4.97;2.80;;;22.30;47.70;;;;;;5103899;27;20965;-48
2022/08/10 03:10:15;;;;;;;5.60;3.40;;;22.30;47.80;;;;;;5106087;27;20462;-48
2022/08/10 03:12:43;;;;;;;4.07;3.63;;;22.30;48.20;;;;;;5120535;27;20459;-48
2022/08/10 03:15:12;;;;;;;3.70;3.40;;;22.30;48.10;;;;;;5100619;27;20467;-48
2022/08/10 03:17:44;;;;;;;11.13;3.70;;;22.20;48.10;;;;;;5117945;27;20467;-48
2022/08/10 03:20:27;;;;;;;5.40;3.40;;;22.20;48.50;;;;;;5117911;27;20844;-48
2022/08/10 03:23:10;;;;;;;3.80;3.47;;;22.20;48.20;;;;;;5112206;27;20942;-47
2022/08/10 03:25:37;;;;;;;4.13;3.07;;;22.20;48.30;;;;;;5098449;27;20461;-48
2022/08/10 03:28:04;;;;;;;4.03;2.90;;;22.10;48.20;;;;;;5118370;27;20455;-48
2022/08/10 03:30:32;;;;;;;5.97;3.50;;;22.10;48.20;;;;;;5119032;27;20847;-47
2022/08/10 03:33:03;;;;;;;4.13;3.10;;;22.10;48.40;;;;;;5099600;27;20989;-48
2022/08/10 03:35:30;;;;;;;3.43;3.17;;;22.10;48.30;;;;;;5117326;27;20474;-48
2022/08/10 03:37:59;;;;;;;4.30;2.93;;;22.20;48.20;;;;;;5121235;27;20473;-48
2022/08/10 03:40:29;;;;;;;3.27;3.07;;;22.20;48.10;;;;;;5112202;27;20862;-48
2022/08/10 03:43:19;;;;;;;3.20;3.00;;;22.20;48.30;;;;;;5119595;27;20497;-48
2022/08/10 03:45:54;;;;;;;3.67;3.03;;;22.20;48.30;;;;;;5117492;27;20837;-48
2022/08/10 03:48:27;;;;;;;4.03;3.63;;;22.20;48.30;;;;;;5123968;27;20962;-46
2022/08/10 03:51:15;;;;;;;4.73;3.00;;;22.10;48.30;;;;;;5110213;28;20468;-46
2022/08/10 03:53:42;;;;;;;4.70;3.30;;;22.10;48.70;;;;;;5125124;27;20515;-45
2022/08/10 03:56:30;;;;;;;7.43;3.47;;;22.00;48.70;;;;;;5096416;27;20447;-45
2022/08/10 03:59:00;;;;;;;6.23;3.70;;;22.00;48.80;;;;;;5109080;28;20488;-45
2022/08/10 04:01:28;;;;;;;3.40;3.10;;;21.90;49.30;;;;;;5123153;27;20543;-46
2022/08/10 04:04:15;;;;;;;3.50;3.20;;;21.80;48.80;;;;;;5124811;27;20450;-45
2022/08/10 04:06:54;;;;;;;3.33;3.10;;;21.80;49.00;;;;;;5125390;27;20487;-50
2022/08/10 04:09:38;;;;;;;3.73;3.27;;;21.70;49.50;;;;;;5094739;28;20488;-48
2022/08/10 04:12:21;;;;;;;4.07;3.50;;;21.60;49.60;;;;;;5120242;27;20463;-47
2022/08/10 04:14:48;;;;;;;5.17;3.43;;;21.60;50.10;;;;;;5121267;27;20443;-46
2022/08/10 04:17:20;;;;;;;5.60;3.47;;;21.40;50.20;;;;;;5099811;27;20524;-46
2022/08/10 04:20:26;;;;;;;3.83;3.53;;;21.40;50.30;;;;;;5119028;27;20828;-46
2022/08/10 04:23:06;;;;;;;4.47;3.40;;;21.30;50.40;;;;;;5101406;28;20483;-47
2022/08/10 04:25:34;;;;;;;4.33;3.40;;;21.30;50.40;;;;;;5120575;27;20450;-46
2022/08/10 04:28:01;;;;;;;6.43;4.10;;;21.30;50.50;;;;;;5112233;27;20454;-47
2022/08/10 04:30:30;;;;;;;3.90;3.60;;;21.20;50.60;;;;;;5116098;27;20789;-47
2022/08/10 04:33:01;;;;;;;10.93;4.20;;;21.20;50.60;;;;;;5116638;27;20542;-47
2022/08/10 04:35:28;;;;;;;3.50;3.20;;;21.20;50.60;;;;;;5101553;28;20457;-47
2022/08/10 04:37:56;;;;;;;5.67;3.70;;;21.20;50.50;;;;;;5114233;27;20891;-47
2022/08/10 04:40:24;;;;;;;4.83;3.70;;;21.10;50.70;;;;;;5114371;27;20484;-47
2022/08/10 04:43:02;;;;;;;3.63;3.33;;;21.10;50.80;;;;;;5120185;27;20498;-46
2022/08/10 04:45:39;;;;;;;4.17;3.40;;;21.00;51.10;;;;;;5095883;27;20454;-47
2022/08/10 04:48:17;;;;;;;6.37;3.70;;;20.90;51.40;;;;;;5106014;28;21465;-47
2022/08/10 04:51:04;;;;;;;6.10;3.73;;;20.90;51.70;;;;;;5116929;27;20464;-47
2022/08/10 04:53:31;;;;;;;4.70;3.57;;;20.90;51.90;;;;;;5121381;27;20467;-47
2022/08/10 04:55:58;;;;;;;6.50;4.10;;;20.90;52.20;;;;;;5120456;27;20839;-47
2022/08/10 04:58:24;;;;;;;4.37;3.97;;;20.90;52.50;;;;;;5097943;27;20471;-47
2022/08/10 05:00:51;;;;;;;4.53;3.50;;;20.80;52.40;;;;;;5114092;27;21028;-47
2022/08/10 05:03:18;;;;;;;3.77;3.43;;;20.80;52.70;;;;;;5096374;27;20460;-47
2022/08/10 05:05:45;;;;;;;6.03;3.90;;;20.80;52.90;;;;;;5123843;27;20463;-47
2022/08/10 05:08:14;;;;;;;4.30;3.90;;;20.80;52.80;;;;;;5121639;27;20539;-46
2022/08/10 05:10:40;;;;;;;4.90;4.23;;;20.80;53.10;;;;;;5101988;27;20475;-47
2022/08/10 05:13:07;;;;;;;4.30;3.77;;;20.80;53.30;;;;;;5119046;27;20471;-46
2022/08/10 05:15:34;;;;;;;4.13;3.27;;;20.80;53.30;;;;;;5119244;27;20466;-46
2022/08/10 05:18:01;;;;;;;4.50;3.70;;;20.80;53.80;;;;;;5121998;27;20459;-46
2022/08/10 05:20:36;;;;;;;5.77;3.73;;;20.80;53.90;;;;;;5100008;27;20493;-46
2022/08/10 05:23:03;;;;;;;6.00;4.03;;;20.90;53.80;;;;;;5119560;27;21243;-46
2022/08/10 05:25:29;;;;;;;6.40;3.90;;;21.00;54.20;;;;;;5103374;27;20489;-47
2022/08/10 05:28:03;;;;;;;4.90;4.23;;;21.00;54.00;;;;;;5118098;27;20500;-46
2022/08/10 05:30:33;;;;;;;4.87;3.83;;;21.00;54.30;;;;;;5124918;27;20512;-46
2022/08/10 05:32:59;;;;;;;6.70;3.40;;;21.10;54.10;;;;;;5113372;27;20983;-46
2022/08/10 05:35:34;;;;;;;4.07;3.67;;;21.20;53.70;;;;;;5127063;27;20462;-46
2022/08/10 05:38:22;;;;;;;4.10;3.27;;;21.30;53.70;;;;;;5126711;27;20458;-46
2022/08/10 05:40:49;;;;;;;5.37;3.40;;;21.40;52.30;;;;;;5128368;27;20483;-48
2022/08/10 05:43:19;;;;;;;3.70;3.30;;;21.50;51.70;;;;;;5123433;27;20454;-47
2022/08/10 05:45:47;;;;;;;4.90;4.50;;;21.60;51.20;;;;;;5119891;27;20491;-47
2022/08/10 05:48:35;;;;;;;4.20;3.77;;;21.60;50.30;;;;;;5118789;27;20456;-48
2022/08/10 05:51:26;;;;;;;3.30;3.00;;;21.80;51.00;;;;;;5119057;27;21029;-48
2022/08/10 05:53:54;;;;;;;5.87;3.80;;;21.90;51.00;;;;;;5125962;27;20512;-45
2022/08/10 05:56:30;;;;;;;4.67;3.77;;;22.00;51.10;;;;;;5120993;27;20854;-47
2022/08/10 05:59:18;;;;;;;4.93;3.20;;;22.10;50.60;;;;;;5115743;27;20470;-45
2022/08/10 06:02:07;;;;;;;3.80;3.50;;;22.10;49.30;;;;;;5120863;27;20878;-47
2022/08/10 06:04:55;;;;;;;4.37;3.97;;;22.20;49.10;;;;;;5108800;27;20447;-48
2022/08/10 06:07:26;;;;;;;4.70;3.50;;;22.30;49.60;;;;;;5119009;27;20474;-48
2022/08/10 06:09:55;;;;;;;4.07;3.43;;;22.50;48.70;;;;;;5122342;27;20454;-47
2022/08/10 06:12:27;;;;;;;6.17;3.90;;;22.50;48.20;;;;;;5101012;27;20452;-47
2022/08/10 06:15:16;;;;;;;5.67;3.67;;;22.50;48.20;;;;;;5118337;27;20462;-48
2022/08/10 06:17:47;;;;;;;4.63;3.57;;;22.60;49.50;;;;;;5122426;27;20455;-47
2022/08/10 06:20:29;;;;;;;4.93;3.50;;;22.70;49.20;;;;;;5093830;27;20527;-47
2022/08/10 06:23:03;;;;;;;4.53;3.47;;;22.70;47.80;;;;;;5117256;27;20451;-47
2022/08/10 06:25:31;;;;;;;4.20;3.40;;;22.80;47.60;;;;;;5105172;27;20446;-47
2022/08/10 06:28:19;;;;;;;5.17;3.63;;;22.90;47.60;;;;;;5119849;27;21038;-47
2022/08/10 06:30:48;;;;;;;3.77;3.47;;;23.10;47.90;;;;;;5118766;27;20554;-47
2022/08/10 06:33:16;;;;;;;4.27;3.87;;;23.10;47.20;;;;;;5124762;27;20466;-47
2022/08/10 06:35:43;;;;;;;4.83;3.50;;;23.10;47.10;;;;;;5126265;27;20856;-47
2022/08/10 06:38:11;;;;;;;3.20;3.00;;;23.20;47.10;;;;;;5118003;27;20496;-47
2022/08/10 06:40:44;;;;;;;4.33;3.60;;;23.30;47.10;;;;;;5119391;27;20994;-47
2022/08/10 06:43:14;;;;;;;4.20;3.80;;;23.40;46.80;;;;;;5104355;27;20442;-47
2022/08/10 06:45:52;;;;;;;4.00;3.10;;;23.50;46.20;;;;;;5122870;27;21008;-47
2022/08/10 06:48:40;;;;;;;5.30;3.57;;;23.50;46.50;;;;;;5121228;27;20966;-48
2022/08/10 06:51:19;;;;;;;3.53;3.23;;;23.70;46.60;;;;;;5125531;27;20821;-48
2022/08/10 06:53:48;;;;;;;3.53;3.23;;;23.70;46.10;;;;;;5109568;27;20441;-48
2022/08/10 06:56:25;;;;;;;8.30;3.60;;;23.80;46.20;;;;;;5123619;27;20452;-48
2022/08/10 06:59:14;;;;;;;3.50;3.07;;;24.00;45.90;;;;;;5110403;27;20435;-48
2022/08/10 07:02:12;;;;;;;4.13;3.60;;;24.00;45.80;;;;;;5120061;27;20451;-48
2022/08/10 07:04:42;;;;;;;3.60;3.30;;;24.10;45.80;;;;;;5102398;27;20451;-48
2022/08/10 07:07:15;;;;;;;4.63;2.93;;;24.20;45.30;;;;;;5123063;27;20449;-48
2022/08/10 07:09:44;;;;;;;6.47;2.97;;;24.10;45.60;;;;;;5106043;27;20811;-47
2022/08/10 07:12:13;;;;;;;9.07;3.57;;;24.10;45.30;;;;;;5123551;27;20450;-48
2022/08/10 07:14:43;;;;;;;5.57;3.03;;;24.10;45.60;;;;;;5107644;27;20461;-47
2022/08/10 07:17:12;;;;;;;6.63;2.93;;;24.10;45.40;;;;;;5123662;27;20450;-47
2022/08/10 07:19:45;;;;;;;5.10;3.60;;;24.20;45.30;;;;;;5118669;27;20475;-48
2022/08/10 07:22:18;;;;;;;3.60;3.40;;;24.20;45.20;;;;;;5105709;27;20671;-47
2022/08/10 07:25:06;;;;;;;4.47;3.20;;;24.30;45.20;;;;;;5106700;27;20839;-47
2022/08/10 07:27:34;;;;;;;5.20;3.10;;;24.40;44.90;;;;;;5121535;27;20453;-47
2022/08/10 07:30:21;;;;;;;5.37;3.47;;;24.60;44.90;;;;;;5113573;27;20440;-47
2022/08/10 07:32:51;;;;;;;3.20;2.90;;;24.70;44.80;;;;;;5117662;27;20450;-47
2022/08/10 07:35:20;;;;;;;5.40;3.20;;;24.80;44.50;;;;;;5122493;27;20461;-48
2022/08/10 07:37:50;;;;;;;5.20;2.90;;;24.90;44.60;;;;;;5110555;27;20457;-49
2022/08/10 07:40:19;;;;;;;6.60;3.70;;;25.00;44.50;;;;;;5125629;27;21088;-48
2022/08/10 07:42:48;;;;;;;5.43;3.20;;;25.00;44.10;;;;;;5104377;27;20446;-48
2022/08/10 07:45:15;;;;;;;3.53;3.20;;;25.10;44.30;;;;;;5112251;27;20449;-48
2022/08/10 07:47:59;;;;;;;2.77;2.57;;;25.20;44.10;;;;;;5122259;27;20668;-48
2022/08/10 07:50:34;;;;;;;3.03;2.83;;;25.20;43.70;;;;;;5119746;27;20464;-48
2022/08/10 07:53:05;;;;;;;6.67;3.57;;;25.20;43.90;;;;;;5120362;27;20500;-48
2022/08/10 07:55:33;;;;;;;3.87;3.17;;;25.40;43.80;;;;;;5121440;27;20473;-48
2022/08/10 07:58:26;;;;;;;4.90;3.50;;;25.50;43.60;;;;;;5122426;27;20527;-48
2022/08/10 08:00:53;;;;;;;3.27;2.93;;;25.70;43.50;;;;;;5122648;27;20482;-48
2022/08/10 08:03:27;;;;;;;3.90;2.73;;;25.70;43.50;;;;;;5123396;28;20443;-48
2022/08/10 08:05:59;;;;;;;2.80;2.53;;;25.90;43.10;;;;;;5108065;28;20795;-48
2022/08/10 08:08:39;;;;;;;6.70;2.53;;;26.00;42.90;;;;;;5120897;27;20537;-48
2022/08/10 08:11:07;;;;;;;4.73;3.40;;;26.20;42.40;;;;;;5121078;27;20446;-48
2022/08/10 08:13:52;;;;;;;3.27;2.97;;;26.30;42.00;;;;;;5108861;28;20538;-48
2022/08/10 08:16:20;;;;;;;4.17;2.97;;;26.30;42.10;;;;;;5122642;27;20434;-48
2022/08/10 08:18:50;;;;;;;3.70;2.57;;;26.50;42.50;;;;;;5107107;28;20443;-48
2022/08/10 08:21:39;;;;;;;3.77;3.30;;;26.60;42.30;;;;;;5112352;28;20483;-48
2022/08/10 08:24:28;;;;;;;3.80;2.90;;;26.60;42.30;;;;;;5106083;28;20842;-48
2022/08/10 08:27:01;;;;;;;3.47;3.17;;;26.80;41.80;;;;;;5117115;28;20500;-48
2022/08/10 08:29:32;;;;;;;4.03;2.90;;;26.90;41.60;;;;;;5120019;28;20458;-48
2022/08/10 08:32:00;;;;;;;3.10;2.80;;;27.00;41.50;;;;;;5121753;28;20959;-48
2022/08/10 08:34:36;;;;;;;3.87;3.00;;;27.10;41.30;;;;;;5113254;27;20458;-48
2022/08/10 08:37:04;;;;;;;4.00;2.53;;;27.10;41.10;;;;;;5102914;28;20455;-48
2022/08/10 08:39:32;;;;;;;3.03;2.83;;;27.20;41.30;;;;;;5109541;27;20443;-48
2022/08/10 08:42:23;;;;;;;3.00;2.70;;;27.40;40.50;;;;;;5126095;27;21078;-48
2022/08/10 08:45:05;;;;;;;3.00;2.70;;;27.40;40.80;;;;;;5112321;27;20966;-48
2022/08/10 08:47:51;;;;;;;3.83;2.90;;;27.50;40.70;;;;;;5115027;27;20449;-48
2022/08/10 08:51:13;;;;;;;3.77;2.90;;;27.60;40.70;;;;;;5116022;27;20451;-48
2022/08/10 08:54:32;;;;;;;3.77;3.00;;;27.80;40.20;;;;;;5128640;27;20516;-48
2022/08/10 08:57:09;;;;;;;3.77;2.70;;;27.90;40.30;;;;;;5125214;27;20485;-48
2022/08/10 09:00:09;;;;;;;8.73;2.90;;;28.00;40.10;;;;;;5125401;27;20465;-48
2022/08/10 09:02:50;;;;;;;4.50;3.17;;;27.90;39.80;;;;;;5115486;27;21166;-48
2022/08/10 09:05:23;;;;;;;2.77;2.57;;;28.00;39.90;;;;;;5106428;27;20228;-48
2022/08/10 09:08:03;;;;;;;3.10;2.33;;;28.10;39.60;;;;;;5123273;27;20212;-48
2022/08/10 09:10:56;;;;;;;5.73;3.07;;;28.10;39.40;;;;;;5110282;27;20208;-48
2022/08/10 09:13:53;;;;;;;3.13;2.70;;;28.30;40.10;;;;;;5122513;27;20201;-48
2022/08/10 09:16:33;;;;;;;3.67;2.90;;;28.40;39.30;;;;;;5127867;27;20204;-48
2022/08/10 09:19:00;;;;;;;4.10;3.50;;;28.50;39.30;;;;;;5123307;27;20205;-48
2022/08/10 09:21:37;;;;;;;3.33;3.03;;;28.60;39.10;;;;;;5122188;27;20236;-48
2022/08/10 09:24:42;;;;;;;4.67;2.53;;;28.60;38.70;;;;;;5126027;27;20438;-48
2022/08/10 09:27:21;;;;;;;3.50;2.50;;;28.60;39.20;;;;;;5126027;27;20205;-48
2022/08/10 09:30:03;;;;;;;2.60;2.23;;;28.70;38.80;;;;;;5126908;27;20201;-48
2022/08/10 09:32:30;;;;;;;6.00;3.13;;;29.00;38.70;;;;;;5123756;27;20664;-48
2022/08/10 09:35:25;;;;;;;4.40;3.40;;;29.10;38.40;;;;;;5124482;27;20210;-49
2022/08/10 09:38:36;;;;;;;3.17;2.87;;;29.10;38.30;;;;;;5127376;27;20231;-48
2022/08/10 09:41:31;;;;;;;3.13;2.87;;;28.90;38.10;;;;;;5108813;27;20228;-49
2022/08/10 09:44:24;;;;;;;4.40;3.00;;;29.10;38.10;;;;;;5120696;27;20563;-48
2022/08/10 09:47:02;;;;;;;2.40;2.20;;;29.20;37.50;;;;;;5121875;27;20201;-49
2022/08/10 09:50:15;;;;;;;2.60;2.40;;;29.40;37.90;;;;;;5103056;27;20214;-48
2022/08/10 09:53:02;;;;;;;2.80;2.60;;;29.50;37.10;;;;;;5043677;28;20228;-48
2022/08/10 09:55:56;;;;;;;3.15;2.70;;;29.70;37.10;;;;;;5122731;27;20205;-47
2022/08/10 09:59:00;;;;;;;3.35;2.38;;;29.90;36.70;;;;;;5122130;27;20669;-48
2022/08/10 10:02:10;;;;;;;2.85;2.50;;;29.80;36.30;;;;;;5106998;27;20274;-47
2022/08/10 10:04:49;;;;;;;3.95;2.60;;;29.90;35.30;;;;;;5123141;27;20232;-47
2022/08/10 10:07:25;;;;;;;3.50;2.10;;;29.80;35.10;;;;;;5127406;27;20622;-48
2022/08/10 10:10:24;;;;;;;4.20;2.50;;;30.00;35.50;;;;;;5123123;27;20211;-48
2022/08/10 10:13:00;;;;;;;3.53;2.40;;;30.30;35.10;;;;;;5092481;27;20577;-48
2022/08/10 10:15:43;;;;;;;3.22;2.58;;;30.40;35.50;;;;;;5123437;27;20194;-48
2022/08/10 10:18:36;;;;;;;3.30;2.83;;;30.60;34.60;;;;;;5121483;27;20204;-48
2022/08/10 10:21:15;;;;;;;2.50;2.25;;;30.80;34.20;;;;;;5111687;27;20240;-48
2022/08/10 10:24:26;;;;;;;6.82;2.53;;;30.90;33.50;;;;;;5125467;27;20261;-48
2022/08/10 10:26:59;;;;;;;8.98;3.22;;;30.60;33.60;;;;;;5110336;27;20670;-48
2022/08/10 10:29:54;;;;;;;2.65;2.45;;;30.50;33.80;;;;;;5121687;27;20295;-48
2022/08/10 10:32:38;;;;;;;4.68;2.78;;;30.30;34.10;;;;;;5122136;27;20227;-48
2022/08/10 10:35:18;;;;;;;2.35;2.15;;;30.40;34.20;;;;;;5124112;27;20212;-48
2022/08/10 10:37:49;;;;;;;2.85;2.33;;;30.50;34.10;;;;;;5123325;27;20588;-48
2022/08/10 10:41:10;;;;;;;2.88;2.55;;;30.50;34.10;;;;;;5122631;27;20227;-48
2022/08/10 10:43:52;;;;;;;4.00;2.45;;;30.40;34.20;;;;;;5120049;27;20533;-48
2022/08/10 10:47:01;;;;;;;6.80;3.22;;;30.40;34.00;;;;;;5109532;27;20192;-48
2022/08/10 10:49:51;;;;;;;3.83;2.83;;;29.90;34.30;;;;;;5083025;27;20230;-47
2022/08/10 10:52:46;;;;;;;8.43;2.87;;;29.40;34.80;;;;;;5105513;27;20791;-47
2022/08/10 10:55:36;;;;;;;3.25;2.95;;;29.60;35.10;;;;;;5121571;27;20215;-48
2022/08/10 10:58:39;;;;;;;4.60;3.03;;;29.40;34.90;;;;;;5121218;27;20220;-48
2022/08/10 11:01:12;;;;;;;4.00;2.40;;;29.60;34.80;;;;;;5108635;27;20686;-48
2022/08/10 11:03:59;;;;;;;3.40;2.28;;;29.50;34.70;;;;;;5119052;27;20243;-47
2022/08/10 11:06:41;;;;;;;3.05;2.75;;;29.60;34.90;;;;;;5123059;27;20212;-48
2022/08/10 11:09:18;;;;;;;4.00;2.95;;;29.60;34.90;;;;;;5122854;27;20203;-48
2022/08/10 11:12:20;;;;;;;2.53;2.33;;;29.60;34.60;;;;;;5115328;27;20204;-47
2022/08/10 11:15:13;;;;;;;5.13;2.77;;;29.40;34.90;;;;;;5104568;27;20215;-47
2022/08/10 11:18:12;;;;;;;4.33;2.80;;;29.40;35.00;;;;;;5101775;27;20212;-48
2022/08/10 11:20:54;;;;;;;4.03;2.60;;;29.30;34.80;;;;;;5120660;27;20719;-47
2022/08/10 11:23:33;;;;;;;7.70;3.30;;;29.10;34.60;;;;;;5121588;27;20204;-47
2022/08/10 11:26:16;;;;;;;2.90;2.70;;;29.00;35.30;;;;;;5104681;27;20208;-47
2022/08/10 11:28:52;;;;;;;5.50;3.53;;;29.00;35.50;;;;;;5118274;27;20209;-47
2022/08/10 11:31:32;;;;;;;5.43;2.40;;;29.00;36.20;;;;;;5102160;27;20580;-47
2022/08/10 11:34:11;;;;;;;2.53;2.33;;;28.80;35.00;;;;;;5091751;27;20231;-47
2022/08/10 11:37:20;;;;;;;3.00;2.73;;;28.80;35.70;;;;;;5086161;28;20214;-47
2022/08/10 11:40:03;;;;;;;4.30;2.50;;;28.90;35.90;;;;;;5082779;28;20206;-47
2022/08/10 11:42:43;;;;;;;2.93;2.70;;;28.90;35.70;;;;;;5084791;28;20234;-48
2022/08/10 11:45:27;;;;;;;2.73;2.53;;;28.90;35.80;;;;;;5067684;28;20205;-47
2022/08/10 11:48:22;;;;;;;3.80;2.70;;;28.70;36.30;;;;;;5085819;28;20213;-47
2022/08/10 11:51:39;;;;;;;3.97;2.40;;;28.70;36.50;;;;;;5074106;28;20670;-48
2022/08/10 11:54:25;;;;;;;3.40;2.40;;;28.80;36.50;;;;;;5080957;28;20216;-48
2022/08/10 11:56:58;;;;;;;2.93;2.50;;;28.90;36.60;;;;;;5085702;28;20229;-47
2022/08/10 12:02:44;;;;;;;2.73;2.53;;;29.00;35.90;;;;;;5084314;28;20221;-47
2022/08/10 12:05:21;;;;;;;5.33;3.00;;;29.00;35.20;;;;;;5087083;28;20206;-47
2022/08/10 12:08:09;;;;;;;2.87;2.67;;;28.90;34.60;;;;;;5074582;28;20217;-47
2022/08/10 12:10:57;;;;;;;3.20;2.33;;;28.80;35.10;;;;;;5073462;28;20213;-47
2022/08/10 12:13:46;;;;;;;4.27;2.70;;;28.80;35.50;;;;;;5088176;28;20244;-47
2022/08/10 12:16:37;;;;;;;2.97;2.77;;;28.80;35.10;;;;;;5087293;28;20218;-47
2022/08/10 12:19:41;;;;;;;3.07;2.63;;;28.90;35.60;;;;;;5089248;28;20439;-48
2022/08/10 12:22:47;;;;;;;2.93;2.67;;;29.00;35.60;;;;;;5086814;28;20222;-47
2022/08/10 12:25:24;;;;;;;2.87;2.67;;;29.10;35.30;;;;;;5077727;28;20204;-47
2022/08/10 12:28:20;;;;;;;3.30;2.80;;;29.10;34.80;;;;;;5090754;28;20206;-47
2022/08/10 12:31:11;;;;;;;3.83;2.40;;;29.10;35.00;;;;;;5090250;28;20614;-47
2022/08/10 12:33:49;;;;;;;3.20;2.90;;;29.00;34.40;;;;;;5089340;28;20694;-47
2022/08/10 12:36:36;;;;;;;2.53;2.33;;;29.00;34.60;;;;;;5087957;28;20216;-47
2022/08/10 12:39:18;;;;;;;3.60;2.23;;;29.00;34.40;;;;;;5091143;28;20271;-47
2022/08/10 12:42:06;;;;;;;2.60;1.77;;;28.80;34.70;;;;;;5086672;28;20229;-47
2022/08/10 12:44:48;;;;;;;3.50;2.50;;;28.90;34.40;;;;;;5089105;28;20234;-48
2022/08/10 12:47:51;;;;;;;2.57;2.37;;;28.90;34.20;;;;;;5077218;28;20210;-48
2022/08/10 12:50:25;;;;;;;2.33;2.13;;;29.00;33.60;;;;;;5087786;28;20198;-48
2022/08/10 12:53:22;;;;;;;2.37;2.13;;;28.80;33.70;;;;;;5087664;28;20218;-47
2022/08/10 12:55:50;;;;;;;2.60;2.40;;;28.90;33.90;;;;;;5086389;28;20198;-48
2022/08/10 12:58:18;;;;;;;2.50;2.30;;;28.90;34.10;;;;;;5086352;28;20702;-47
2022/08/10 13:01:07;;;;;;;2.20;2.10;;;28.80;34.40;;;;;;5076741;28;20550;-47
2022/08/10 13:03:49;;;;;;;2.80;2.50;;;28.90;34.70;;;;;;5087353;28;20630;-47
2022/08/10 13:06:40;;;;;;;3.20;2.83;;;28.80;34.80;;;;;;5077167;28;20222;-47
2022/08/10 13:09:08;;;;;;;2.70;2.50;;;28.80;34.30;;;;;;5089645;28;20256;-48
2022/08/10 13:11:48;;;;;;;2.50;2.30;;;28.80;34.70;;;;;;5074346;28;20799;-48
2022/08/10 13:14:45;;;;;;;2.70;2.50;;;28.90;34.30;;;;;;5087885;28;20682;-48
2022/08/10 13:17:23;;;;;;;3.60;2.70;;;28.90;34.30;;;;;;5088538;28;20673;-48
2022/08/10 13:20:35;;;;;;;3.93;2.50;;;28.90;34.00;;;;;;5074000;28;20206;-48
2022/08/10 13:23:14;;;;;;;2.50;2.30;;;28.80;34.60;;;;;;5056286;28;20230;-48
2022/08/10 13:25:44;;;;;;;2.30;2.10;;;29.00;33.80;;;;;;5088001;28;20671;-48
2022/08/10 13:28:15;;;;;;;2.90;2.70;;;29.10;33.80;;;;;;5088940;28;20202;-48
2022/08/10 13:31:04;;;;;;;5.20;2.07;;;29.10;34.00;;;;;;5073576;28;20251;-48
2022/08/10 13:33:33;;;;;;;2.80;2.60;;;29.10;33.20;;;;;;5090564;28;20202;-48
2022/08/10 13:36:31;;;;;;;4.37;2.77;;;29.10;33.30;;;;;;5088146;28;20649;-48
2022/08/10 13:38:59;;;;;;;2.83;2.17;;;29.00;33.40;;;;;;5087261;28;20584;-48
2022/08/10 13:41:38;;;;;;;2.77;2.57;;;29.00;33.50;;;;;;5087976;28;20653;-48
2022/08/10 13:44:07;;;;;;;2.70;2.50;;;29.00;33.80;;;;;;5082853;28;20209;-48
2022/08/10 13:46:39;;;;;;;3.10;2.37;;;29.00;33.90;;;;;;5060602;28;20690;-48
2022/08/10 13:49:08;;;;;;;3.13;2.53;;;29.00;33.60;;;;;;5068587;28;20214;-48
2022/08/10 13:51:37;;;;;;;2.83;2.17;;;29.10;33.80;;;;;;5090246;28;20213;-48